sensor_id;sensor_type;location;lat;lon;timestamp;temperature;humidity
12329;DHT22;6230;52.390;10.256;2023-04-24T00:01:39;17.40;58.50
12329;DHT22;6230;52.390;10.256;2023-04-24T00:04:05;17.40;58.70
12329;DHT22;6230;52.390;10.256;2023-04-24T00:06:32;17.30;58.70
12329;DHT22;6230;52.390;10.256;2023-04-24T00:09:03;17.30;58.70
12329;DHT22;6230;52.390;10.256;2023-04-24T00:11:29;17.30;58.80
12329;DHT22;6230;52.390;10.256;2023-04-24T00:13:56;17.30;58.80
12329;DHT22;6230;52.390;10.256;2023-04-24T00:16:22;17.30;58.90
12329;DHT22;6230;52.390;10.256;2023-04-24T00:18:48;17.20;58.90
12329;DHT22;6230;52.390;10.256;2023-04-24T00:21:14;17.20;59.10
12329;DHT22;6230;52.390;10.256;2023-04-24T00:23:41;17.20;59.30
12329;DHT22;6230;52.390;10.256;2023-04-24T00:26:07;17.10;59.30
12329;DHT22;6230;52.390;10.256;2023-04-24T00:28:32;17.10;59.30
12329;DHT22;6230;52.390;10.256;2023-04-24T00:30:58;17.10;59.30
12329;DHT22;6230;52.390;10.256;2023-04-24T00:33:23;17.10;59.30
12329;DHT22;6230;52.390;10.256;2023-04-24T00:35:49;17.10;59.30
12329;DHT22;6230;52.390;10.256;2023-04-24T00:38:14;17.10;59.30
12329;DHT22;6230;52.390;10.256;2023-04-24T00:40:40;17.10;59.30
12329;DHT22;6230;52.390;10.256;2023-04-24T00:43:05;17.10;59.30
12329;DHT22;6230;52.390;10.256;2023-04-24T00:45:31;17.00;59.20
12329;DHT22;6230;52.390;10.256;2023-04-24T00:47:57;17.10;59.20
12329;DHT22;6230;52.390;10.256;2023-04-24T00:50:23;17.10;59.20
12329;DHT22;6230;52.390;10.256;2023-04-24T00:52:49;17.20;59.20
12329;DHT22;6230;52.390;10.256;2023-04-24T00:55:16;17.10;59.10
12329;DHT22;6230;52.390;10.256;2023-04-24T00:57:41;17.10;59.10
12329;DHT22;6230;52.390;10.256;2023-04-24T01:00:08;17.00;59.20
12329;DHT22;6230;52.390;10.256;2023-04-24T01:02:41;17.00;59.10
12329;DHT22;6230;52.390;10.256;2023-04-24T01:05:14;17.00;59.30
12329;DHT22;6230;52.390;10.256;2023-04-24T01:07:45;16.90;59.40
12329;DHT22;6230;52.390;10.256;2023-04-24T01:10:13;16.80;59.50
12329;DHT22;6230;52.390;10.256;2023-04-24T01:12:39;16.80;59.60
12329;DHT22;6230;52.390;10.256;2023-04-24T01:15:05;16.80;59.70
12329;DHT22;6230;52.390;10.256;2023-04-24T01:17:32;16.70;59.70
12329;DHT22;6230;52.390;10.256;2023-04-24T01:19:58;16.70;59.80
12329;DHT22;6230;52.390;10.256;2023-04-24T01:22:25;16.70;59.90
12329;DHT22;6230;52.390;10.256;2023-04-24T01:24:51;16.70;59.90
12329;DHT22;6230;52.390;10.256;2023-04-24T01:27:17;16.60;59.90
12329;DHT22;6230;52.390;10.256;2023-04-24T01:29:43;16.60;59.90
12329;DHT22;6230;52.390;10.256;2023-04-24T01:32:09;16.60;60.00
12329;DHT22;6230;52.390;10.256;2023-04-24T01:34:35;16.60;60.00
12329;DHT22;6230;52.390;10.256;2023-04-24T01:37:00;16.60;60.00
12329;DHT22;6230;52.390;10.256;2023-04-24T01:39:26;16.60;60.00
12329;DHT22;6230;52.390;10.256;2023-04-24T01:41:54;16.50;60.00
12329;DHT22;6230;52.390;10.256;2023-04-24T01:44:20;16.50;60.20
12329;DHT22;6230;52.390;10.256;2023-04-24T01:46:46;16.50;60.30
12329;DHT22;6230;52.390;10.256;2023-04-24T01:49:11;16.40;60.30
12329;DHT22;6230;52.390;10.256;2023-04-24T01:51:37;16.40;60.40
12329;DHT22;6230;52.390;10.256;2023-04-24T01:54:03;16.30;60.60
12329;DHT22;6230;52.390;10.256;2023-04-24T01:56:33;16.30;60.60
12329;DHT22;6230;52.390;10.256;2023-04-24T01:59:03;16.30;60.80
12329;DHT22;6230;52.390;10.256;2023-04-24T02:01:36;16.20;60.90
12329;DHT22;6230;52.390;10.256;2023-04-24T02:04:02;16.20;61.00
12329;DHT22;6230;52.390;10.256;2023-04-24T02:06:28;16.20;61.00
12329;DHT22;6230;52.390;10.256;2023-04-24T02:08:54;16.10;61.00
12329;DHT22;6230;52.390;10.256;2023-04-24T02:11:19;16.10;61.00
12329;DHT22;6230;52.390;10.256;2023-04-24T02:13:45;16.10;61.10
12329;DHT22;6230;52.390;10.256;2023-04-24T02:16:10;16.10;61.20
12329;DHT22;6230;52.390;10.256;2023-04-24T02:18:36;16.10;61.20
12329;DHT22;6230;52.390;10.256;2023-04-24T02:21:02;16.10;61.30
12329;DHT22;6230;52.390;10.256;2023-04-24T02:23:27;16.10;61.10
12329;DHT22;6230;52.390;10.256;2023-04-24T02:25:54;16.10;61.10
12329;DHT22;6230;52.390;10.256;2023-04-24T02:28:20;16.20;61.00
12329;DHT22;6230;52.390;10.256;2023-04-24T02:30:45;16.30;60.90
12329;DHT22;6230;52.390;10.256;2023-04-24T02:33:11;16.30;60.80
12329;DHT22;6230;52.390;10.256;2023-04-24T02:35:37;16.30;60.70
12329;DHT22;6230;52.390;10.256;2023-04-24T02:38:03;16.30;60.70
12329;DHT22;6230;52.390;10.256;2023-04-24T02:40:29;16.30;61.40
12329;DHT22;6230;52.390;10.256;2023-04-24T02:42:55;16.40;60.60
12329;DHT22;6230;52.390;10.256;2023-04-24T02:45:20;16.30;60.60
12329;DHT22;6230;52.390;10.256;2023-04-24T02:47:46;16.30;60.70
12329;DHT22;6230;52.390;10.256;2023-04-24T02:50:11;16.30;60.70
12329;DHT22;6230;52.390;10.256;2023-04-24T02:52:37;16.30;60.70
12329;DHT22;6230;52.390;10.256;2023-04-24T02:55:02;16.30;60.70
12329;DHT22;6230;52.390;10.256;2023-04-24T02:57:28;16.30;60.70
12329;DHT22;6230;52.390;10.256;2023-04-24T02:59:54;16.20;60.60
12329;DHT22;6230;52.390;10.256;2023-04-24T03:02:19;16.20;60.60
12329;DHT22;6230;52.390;10.256;2023-04-24T03:04:46;16.20;60.60
12329;DHT22;6230;52.390;10.256;2023-04-24T03:07:13;16.10;60.80
12329;DHT22;6230;52.390;10.256;2023-04-24T03:09:40;16.10;60.90
12329;DHT22;6230;52.390;10.256;2023-04-24T03:12:05;16.00;60.90
12329;DHT22;6230;52.390;10.256;2023-04-24T03:14:31;15.90;61.00
12329;DHT22;6230;52.390;10.256;2023-04-24T03:16:56;15.90;61.00
12329;DHT22;6230;52.390;10.256;2023-04-24T03:19:22;15.90;61.10
12329;DHT22;6230;52.390;10.256;2023-04-24T03:21:48;15.80;62.00
12329;DHT22;6230;52.390;10.256;2023-04-24T03:24:14;15.80;61.30
12329;DHT22;6230;52.390;10.256;2023-04-24T03:26:39;15.80;61.40
12329;DHT22;6230;52.390;10.256;2023-04-24T03:29:05;15.80;61.50
12329;DHT22;6230;52.390;10.256;2023-04-24T03:31:30;15.70;61.50
12329;DHT22;6230;52.390;10.256;2023-04-24T03:33:56;15.60;61.50
12329;DHT22;6230;52.390;10.256;2023-04-24T03:36:22;15.60;61.70
12329;DHT22;6230;52.390;10.256;2023-04-24T03:38:47;15.50;61.80
12329;DHT22;6230;52.390;10.256;2023-04-24T03:41:13;15.50;61.90
12329;DHT22;6230;52.390;10.256;2023-04-24T03:43:39;15.50;62.10
12329;DHT22;6230;52.390;10.256;2023-04-24T03:46:04;15.40;62.10
12329;DHT22;6230;52.390;10.256;2023-04-24T03:48:30;15.40;62.10
12329;DHT22;6230;52.390;10.256;2023-04-24T03:50:55;15.40;62.30
12329;DHT22;6230;52.390;10.256;2023-04-24T03:53:21;15.30;62.20
12329;DHT22;6230;52.390;10.256;2023-04-24T03:55:47;15.30;62.20
12329;DHT22;6230;52.390;10.256;2023-04-24T03:58:12;15.30;62.20
12329;DHT22;6230;52.390;10.256;2023-04-24T04:00:41;15.30;62.30
12329;DHT22;6230;52.390;10.256;2023-04-24T04:03:06;15.30;62.20
12329;DHT22;6230;52.390;10.256;2023-04-24T04:05:32;15.20;62.20
12329;DHT22;6230;52.390;10.256;2023-04-24T04:07:57;15.20;62.20
12329;DHT22;6230;52.390;10.256;2023-04-24T04:10:23;15.20;62.20
12329;DHT22;6230;52.390;10.256;2023-04-24T04:12:48;15.20;62.90
12329;DHT22;6230;52.390;10.256;2023-04-24T04:15:14;15.20;62.00
12329;DHT22;6230;52.390;10.256;2023-04-24T04:17:40;15.20;62.00
12329;DHT22;6230;52.390;10.256;2023-04-24T04:20:06;15.20;62.00
12329;DHT22;6230;52.390;10.256;2023-04-24T04:22:35;15.20;61.90
12329;DHT22;6230;52.390;10.256;2023-04-24T04:25:01;15.10;62.70
12329;DHT22;6230;52.390;10.256;2023-04-24T04:27:26;15.10;61.90
12329;DHT22;6230;52.390;10.256;2023-04-24T04:29:53;15.10;61.90
12329;DHT22;6230;52.390;10.256;2023-04-24T04:32:19;15.10;61.90
12329;DHT22;6230;52.390;10.256;2023-04-24T04:34:44;15.10;62.00
12329;DHT22;6230;52.390;10.256;2023-04-24T04:37:11;15.00;62.00
12329;DHT22;6230;52.390;10.256;2023-04-24T04:39:38;15.00;62.00
12329;DHT22;6230;52.390;10.256;2023-04-24T04:42:03;15.00;62.10
12329;DHT22;6230;52.390;10.256;2023-04-24T04:44:29;14.90;62.00
12329;DHT22;6230;52.390;10.256;2023-04-24T04:46:56;14.90;62.10
12329;DHT22;6230;52.390;10.256;2023-04-24T04:49:22;14.90;62.20
12329;DHT22;6230;52.390;10.256;2023-04-24T04:51:49;14.90;62.10
12329;DHT22;6230;52.390;10.256;2023-04-24T04:54:16;14.90;62.10
12329;DHT22;6230;52.390;10.256;2023-04-24T04:56:41;14.90;62.20
12329;DHT22;6230;52.390;10.256;2023-04-24T04:59:07;14.90;62.20
12329;DHT22;6230;52.390;10.256;2023-04-24T05:01:32;14.90;62.20
12329;DHT22;6230;52.390;10.256;2023-04-24T05:03:58;14.90;62.10
12329;DHT22;6230;52.390;10.256;2023-04-24T05:06:23;15.00;62.20
12329;DHT22;6230;52.390;10.256;2023-04-24T05:08:49;15.10;62.20
12329;DHT22;6230;52.390;10.256;2023-04-24T05:11:15;15.00;62.20
12329;DHT22;6230;52.390;10.256;2023-04-24T05:13:40;15.10;62.20
12329;DHT22;6230;52.390;10.256;2023-04-24T05:16:06;15.10;62.20
12329;DHT22;6230;52.390;10.256;2023-04-24T05:18:32;15.10;62.20
12329;DHT22;6230;52.390;10.256;2023-04-24T05:20:57;15.10;62.10
12329;DHT22;6230;52.390;10.256;2023-04-24T05:23:23;15.20;62.10
12329;DHT22;6230;52.390;10.256;2023-04-24T05:25:48;15.20;62.10
12329;DHT22;6230;52.390;10.256;2023-04-24T05:28:14;15.30;62.10
12329;DHT22;6230;52.390;10.256;2023-04-24T05:30:41;15.30;62.10
12329;DHT22;6230;52.390;10.256;2023-04-24T05:33:07;15.20;62.10
12329;DHT22;6230;52.390;10.256;2023-04-24T05:35:33;15.20;62.10
12329;DHT22;6230;52.390;10.256;2023-04-24T05:37:59;15.30;62.10
12329;DHT22;6230;52.390;10.256;2023-04-24T05:40:24;15.30;62.20
12329;DHT22;6230;52.390;10.256;2023-04-24T05:42:50;15.30;62.20
12329;DHT22;6230;52.390;10.256;2023-04-24T05:45:16;15.30;62.20
12329;DHT22;6230;52.390;10.256;2023-04-24T05:47:42;15.30;62.30
12329;DHT22;6230;52.390;10.256;2023-04-24T05:50:10;15.30;62.40
12329;DHT22;6230;52.390;10.256;2023-04-24T05:52:35;15.40;62.60
12329;DHT22;6230;52.390;10.256;2023-04-24T05:55:01;15.40;62.50
12329;DHT22;6230;52.390;10.256;2023-04-24T05:57:26;15.50;62.60
12329;DHT22;6230;52.390;10.256;2023-04-24T05:59:52;15.40;62.50
12329;DHT22;6230;52.390;10.256;2023-04-24T06:02:18;15.40;62.60
12329;DHT22;6230;52.390;10.256;2023-04-24T06:04:43;15.50;62.70
12329;DHT22;6230;52.390;10.256;2023-04-24T06:07:11;15.40;62.80
12329;DHT22;6230;52.390;10.256;2023-04-24T06:09:36;15.40;62.80
12329;DHT22;6230;52.390;10.256;2023-04-24T06:12:02;15.40;62.80
12329;DHT22;6230;52.390;10.256;2023-04-24T06:14:28;15.50;62.80
12329;DHT22;6230;52.390;10.256;2023-04-24T06:16:53;15.50;62.90
12329;DHT22;6230;52.390;10.256;2023-04-24T06:19:19;15.50;62.80
12329;DHT22;6230;52.390;10.256;2023-04-24T06:21:44;15.50;62.80
12329;DHT22;6230;52.390;10.256;2023-04-24T06:24:10;15.60;62.80
12329;DHT22;6230;52.390;10.256;2023-04-24T06:26:36;15.60;62.70
12329;DHT22;6230;52.390;10.256;2023-04-24T06:29:01;15.60;62.70
12329;DHT22;6230;52.390;10.256;2023-04-24T06:31:27;15.70;62.70
12329;DHT22;6230;52.390;10.256;2023-04-24T06:33:52;15.70;62.70
12329;DHT22;6230;52.390;10.256;2023-04-24T06:36:18;15.70;62.60
12329;DHT22;6230;52.390;10.256;2023-04-24T06:38:43;15.70;62.60
12329;DHT22;6230;52.390;10.256;2023-04-24T06:41:10;15.80;62.70
12329;DHT22;6230;52.390;10.256;2023-04-24T06:43:35;15.70;62.70
12329;DHT22;6230;52.390;10.256;2023-04-24T06:46:01;15.70;62.70
12329;DHT22;6230;52.390;10.256;2023-04-24T06:48:28;15.70;62.70
12329;DHT22;6230;52.390;10.256;2023-04-24T06:50:54;15.70;62.70
12329;DHT22;6230;52.390;10.256;2023-04-24T06:53:19;15.80;62.80
12329;DHT22;6230;52.390;10.256;2023-04-24T06:55:45;15.80;62.80
12329;DHT22;6230;52.390;10.256;2023-04-24T06:58:11;15.80;62.70
12329;DHT22;6230;52.390;10.256;2023-04-24T07:00:37;15.90;62.70
12329;DHT22;6230;52.390;10.256;2023-04-24T07:03:03;15.90;62.70
12329;DHT22;6230;52.390;10.256;2023-04-24T07:05:30;15.90;62.60
12329;DHT22;6230;52.390;10.256;2023-04-24T07:07:56;15.80;62.60
12329;DHT22;6230;52.390;10.256;2023-04-24T07:10:23;15.70;62.40
12329;DHT22;6230;52.390;10.256;2023-04-24T07:12:49;15.50;62.20
12329;DHT22;6230;52.390;10.256;2023-04-24T07:15:15;15.40;62.30
12329;DHT22;6230;52.390;10.256;2023-04-24T07:17:41;15.30;62.50
12329;DHT22;6230;52.390;10.256;2023-04-24T07:20:10;15.10;62.70
12329;DHT22;6230;52.390;10.256;2023-04-24T07:22:40;15.20;63.10
12329;DHT22;6230;52.390;10.256;2023-04-24T07:25:06;15.00;63.20
12329;DHT22;6230;52.390;10.256;2023-04-24T07:27:33;15.00;63.30
12329;DHT22;6230;52.390;10.256;2023-04-24T07:29:59;15.00;63.40
12329;DHT22;6230;52.390;10.256;2023-04-24T07:32:24;15.00;63.50
12329;DHT22;6230;52.390;10.256;2023-04-24T07:34:50;15.10;63.60
12329;DHT22;6230;52.390;10.256;2023-04-24T07:37:16;15.00;63.70
12329;DHT22;6230;52.390;10.256;2023-04-24T07:39:41;15.00;63.80
12329;DHT22;6230;52.390;10.256;2023-04-24T07:42:07;15.10;64.00
12329;DHT22;6230;52.390;10.256;2023-04-24T07:44:32;15.20;64.20
12329;DHT22;6230;52.390;10.256;2023-04-24T07:46:58;15.20;64.30
12329;DHT22;6230;52.390;10.256;2023-04-24T07:49:23;15.30;64.40
12329;DHT22;6230;52.390;10.256;2023-04-24T07:51:49;15.30;64.50
12329;DHT22;6230;52.390;10.256;2023-04-24T07:54:15;15.40;64.50
12329;DHT22;6230;52.390;10.256;2023-04-24T07:56:41;15.50;64.50
12329;DHT22;6230;52.390;10.256;2023-04-24T07:59:08;15.50;64.40
12329;DHT22;6230;52.390;10.256;2023-04-24T08:01:35;15.60;64.50
12329;DHT22;6230;52.390;10.256;2023-04-24T08:04:01;15.60;64.30
12329;DHT22;6230;52.390;10.256;2023-04-24T08:06:27;15.70;64.30
12329;DHT22;6230;52.390;10.256;2023-04-24T08:08:57;15.70;63.80
12329;DHT22;6230;52.390;10.256;2023-04-24T08:11:23;15.60;63.40
12329;DHT22;6230;52.390;10.256;2023-04-24T08:13:49;15.60;63.30
12329;DHT22;6230;52.390;10.256;2023-04-24T08:16:15;15.70;62.60
12329;DHT22;6230;52.390;10.256;2023-04-24T08:18:40;15.60;62.20
12329;DHT22;6230;52.390;10.256;2023-04-24T08:21:06;15.70;61.70
12329;DHT22;6230;52.390;10.256;2023-04-24T08:23:32;15.60;61.30
12329;DHT22;6230;52.390;10.256;2023-04-24T08:25:57;15.70;61.30
12329;DHT22;6230;52.390;10.256;2023-04-24T08:28:23;15.80;61.10
12329;DHT22;6230;52.390;10.256;2023-04-24T08:30:49;15.80;60.80
12329;DHT22;6230;52.390;10.256;2023-04-24T08:33:22;15.90;60.70
12329;DHT22;6230;52.390;10.256;2023-04-24T08:35:48;16.00;60.50
12329;DHT22;6230;52.390;10.256;2023-04-24T08:38:13;16.10;60.30
12329;DHT22;6230;52.390;10.256;2023-04-24T08:40:39;16.30;60.20
12329;DHT22;6230;52.390;10.256;2023-04-24T08:43:05;16.30;59.50
12329;DHT22;6230;52.390;10.256;2023-04-24T08:45:32;16.40;59.20
12329;DHT22;6230;52.390;10.256;2023-04-24T08:47:58;16.40;58.90
12329;DHT22;6230;52.390;10.256;2023-04-24T08:50:25;16.50;58.50
12329;DHT22;6230;52.390;10.256;2023-04-24T08:52:51;16.50;58.30
12329;DHT22;6230;52.390;10.256;2023-04-24T08:55:19;16.50;58.00
12329;DHT22;6230;52.390;10.256;2023-04-24T08:57:50;16.50;57.70
12329;DHT22;6230;52.390;10.256;2023-04-24T09:00:16;16.50;57.60
12329;DHT22;6230;52.390;10.256;2023-04-24T09:02:42;16.40;57.70
12329;DHT22;6230;52.390;10.256;2023-04-24T09:05:10;16.40;57.60
12329;DHT22;6230;52.390;10.256;2023-04-24T09:07:35;16.40;57.40
12329;DHT22;6230;52.390;10.256;2023-04-24T09:10:04;16.30;57.50
12329;DHT22;6230;52.390;10.256;2023-04-24T09:12:29;16.30;57.40
12329;DHT22;6230;52.390;10.256;2023-04-24T09:14:56;16.40;57.30
12329;DHT22;6230;52.390;10.256;2023-04-24T09:17:22;16.50;56.90
12329;DHT22;6230;52.390;10.256;2023-04-24T09:19:48;16.60;56.30
12329;DHT22;6230;52.390;10.256;2023-04-24T09:22:14;16.70;56.20
12329;DHT22;6230;52.390;10.256;2023-04-24T09:24:40;16.90;55.80
12329;DHT22;6230;52.390;10.256;2023-04-24T09:27:07;17.00;55.10
12329;DHT22;6230;52.390;10.256;2023-04-24T09:29:32;17.10;55.00
12329;DHT22;6230;52.390;10.256;2023-04-24T09:31:58;17.20;55.00
12329;DHT22;6230;52.390;10.256;2023-04-24T09:34:26;17.40;54.60
12329;DHT22;6230;52.390;10.256;2023-04-24T09:36:53;17.40;54.40
12329;DHT22;6230;52.390;10.256;2023-04-24T09:39:19;17.40;54.20
12329;DHT22;6230;52.390;10.256;2023-04-24T09:41:50;17.30;54.10
12329;DHT22;6230;52.390;10.256;2023-04-24T09:44:19;17.20;54.10
12329;DHT22;6230;52.390;10.256;2023-04-24T09:46:58;17.10;54.20
12329;DHT22;6230;52.390;10.256;2023-04-24T09:49:27;17.00;54.80
12329;DHT22;6230;52.390;10.256;2023-04-24T09:52:06;17.00;54.30
12329;DHT22;6230;52.390;10.256;2023-04-24T09:54:32;16.90;54.30
12329;DHT22;6230;52.390;10.256;2023-04-24T09:56:58;16.90;54.40
12329;DHT22;6230;52.390;10.256;2023-04-24T09:59:25;16.90;54.50
12329;DHT22;6230;52.390;10.256;2023-04-24T10:01:51;16.90;54.30
12329;DHT22;6230;52.390;10.256;2023-04-24T10:06:47;16.90;53.90
12329;DHT22;6230;52.390;10.256;2023-04-24T10:09:17;16.90;53.90
12329;DHT22;6230;52.390;10.256;2023-04-24T10:11:44;16.90;53.90
12329;DHT22;6230;52.390;10.256;2023-04-24T10:14:22;16.80;53.70
12329;DHT22;6230;52.390;10.256;2023-04-24T10:16:48;16.80;53.50
12329;DHT22;6230;52.390;10.256;2023-04-24T10:19:15;16.80;53.20
12329;DHT22;6230;52.390;10.256;2023-04-24T10:21:45;16.80;53.20
12329;DHT22;6230;52.390;10.256;2023-04-24T10:24:15;17.00;53.10
12329;DHT22;6230;52.390;10.256;2023-04-24T10:26:42;17.20;52.80
12329;DHT22;6230;52.390;10.256;2023-04-24T10:29:08;17.30;52.60
12329;DHT22;6230;52.390;10.256;2023-04-24T10:31:37;17.30;52.30
12329;DHT22;6230;52.390;10.256;2023-04-24T10:34:04;17.20;52.20
12329;DHT22;6230;52.390;10.256;2023-04-24T10:36:32;17.20;52.10
12329;DHT22;6230;52.390;10.256;2023-04-24T10:39:01;17.10;52.10
12329;DHT22;6230;52.390;10.256;2023-04-24T10:41:30;17.10;52.20
12329;DHT22;6230;52.390;10.256;2023-04-24T10:44:08;17.10;51.70
12329;DHT22;6230;52.390;10.256;2023-04-24T10:46:35;17.00;51.60
12329;DHT22;6230;52.390;10.256;2023-04-24T10:49:04;16.90;51.50
12329;DHT22;6230;52.390;10.256;2023-04-24T10:51:52;16.80;51.40
12329;DHT22;6230;52.390;10.256;2023-04-24T10:54:45;16.80;51.30
12329;DHT22;6230;52.390;10.256;2023-04-24T10:59:50;16.70;51.30
12329;DHT22;6230;52.390;10.256;2023-04-24T11:02:17;16.70;51.40
12329;DHT22;6230;52.390;10.256;2023-04-24T11:04:43;16.70;51.50
12329;DHT22;6230;52.390;10.256;2023-04-24T11:07:10;16.80;51.60
12329;DHT22;6230;52.390;10.256;2023-04-24T11:09:36;16.90;51.60
12329;DHT22;6230;52.390;10.256;2023-04-24T11:12:07;17.10;51.60
12329;DHT22;6230;52.390;10.256;2023-04-24T11:17:34;17.40;51.00
12329;DHT22;6230;52.390;10.256;2023-04-24T11:20:04;17.40;51.00
12329;DHT22;6230;52.390;10.256;2023-04-24T11:22:33;17.60;51.10
12329;DHT22;6230;52.390;10.256;2023-04-24T11:25:01;17.70;50.80
12329;DHT22;6230;52.390;10.256;2023-04-24T11:27:31;17.80;50.60
12329;DHT22;6230;52.390;10.256;2023-04-24T11:32:35;18.00;50.50
12329;DHT22;6230;52.390;10.256;2023-04-24T11:37:48;18.00;49.80
12329;DHT22;6230;52.390;10.256;2023-04-24T11:40:18;17.80;49.80
12329;DHT22;6230;52.390;10.256;2023-04-24T11:42:49;17.70;49.60
12329;DHT22;6230;52.390;10.256;2023-04-24T11:47:44;17.40;50.00
12329;DHT22;6230;52.390;10.256;2023-04-24T11:50:18;17.10;51.00
12329;DHT22;6230;52.390;10.256;2023-04-24T11:52:46;16.90;52.20
12329;DHT22;6230;52.390;10.256;2023-04-24T11:57:51;16.60;53.60
12329;DHT22;6230;52.390;10.256;2023-04-24T12:00:21;16.60;53.90
12329;DHT22;6230;52.390;10.256;2023-04-24T12:02:48;16.80;53.90
12329;DHT22;6230;52.390;10.256;2023-04-24T12:05:26;17.10;53.90
12329;DHT22;6230;52.390;10.256;2023-04-24T12:07:53;17.30;53.30
12329;DHT22;6230;52.390;10.256;2023-04-24T12:10:27;17.30;52.70
12329;DHT22;6230;52.390;10.256;2023-04-24T12:12:53;17.30;52.50
12329;DHT22;6230;52.390;10.256;2023-04-24T12:15:21;17.20;52.30
12329;DHT22;6230;52.390;10.256;2023-04-24T12:17:47;17.10;52.00
12329;DHT22;6230;52.390;10.256;2023-04-24T12:20:14;17.10;52.00
12329;DHT22;6230;52.390;10.256;2023-04-24T12:22:53;17.00;52.00
12329;DHT22;6230;52.390;10.256;2023-04-24T12:25:24;16.80;52.20
12329;DHT22;6230;52.390;10.256;2023-04-24T12:30:50;16.50;54.00
12329;DHT22;6230;52.390;10.256;2023-04-24T12:33:20;16.30;54.90
12329;DHT22;6230;52.390;10.256;2023-04-24T12:35:48;16.20;55.40
12329;DHT22;6230;52.390;10.256;2023-04-24T12:38:15;16.10;55.70
12329;DHT22;6230;52.390;10.256;2023-04-24T12:40:41;16.10;56.00
12329;DHT22;6230;52.390;10.256;2023-04-24T12:43:18;16.10;56.30
12329;DHT22;6230;52.390;10.256;2023-04-24T12:45:44;16.20;56.50
12329;DHT22;6230;52.390;10.256;2023-04-24T12:48:12;16.20;56.30
12329;DHT22;6230;52.390;10.256;2023-04-24T12:50:41;16.20;55.90
12329;DHT22;6230;52.390;10.256;2023-04-24T12:53:08;16.20;55.80
12329;DHT22;6230;52.390;10.256;2023-04-24T12:55:34;16.20;55.70
12329;DHT22;6230;52.390;10.256;2023-04-24T12:58:00;16.20;55.70
12329;DHT22;6230;52.390;10.256;2023-04-24T13:00:25;16.10;55.70
12329;DHT22;6230;52.390;10.256;2023-04-24T13:02:51;16.00;55.90
12329;DHT22;6230;52.390;10.256;2023-04-24T13:05:17;15.90;56.80
12329;DHT22;6230;52.390;10.256;2023-04-24T13:07:42;15.60;57.20
12329;DHT22;6230;52.390;10.256;2023-04-24T13:10:08;15.30;57.80
12329;DHT22;6230;52.390;10.256;2023-04-24T13:12:35;15.10;58.20
12329;DHT22;6230;52.390;10.256;2023-04-24T13:15:00;15.00;58.60
12329;DHT22;6230;52.390;10.256;2023-04-24T13:17:26;14.90;58.90
12329;DHT22;6230;52.390;10.256;2023-04-24T13:19:55;14.80;59.20
12329;DHT22;6230;52.390;10.256;2023-04-24T13:22:20;14.70;59.40
12329;DHT22;6230;52.390;10.256;2023-04-24T13:24:46;14.70;59.60
12329;DHT22;6230;52.390;10.256;2023-04-24T13:27:15;14.80;60.00
12329;DHT22;6230;52.390;10.256;2023-04-24T13:29:41;14.80;60.10
12329;DHT22;6230;52.390;10.256;2023-04-24T13:32:07;14.90;60.40
12329;DHT22;6230;52.390;10.256;2023-04-24T13:34:32;14.90;60.20
12329;DHT22;6230;52.390;10.256;2023-04-24T13:36:59;15.00;60.10
12329;DHT22;6230;52.390;10.256;2023-04-24T13:39:26;15.00;60.20
12329;DHT22;6230;52.390;10.256;2023-04-24T13:41:52;15.00;60.00
12329;DHT22;6230;52.390;10.256;2023-04-24T13:44:18;15.00;59.70
12329;DHT22;6230;52.390;10.256;2023-04-24T13:46:45;15.10;59.60
12329;DHT22;6230;52.390;10.256;2023-04-24T13:49:15;15.10;59.40
12329;DHT22;6230;52.390;10.256;2023-04-24T13:51:41;15.10;59.10
12329;DHT22;6230;52.390;10.256;2023-04-24T13:54:07;15.10;58.90
12329;DHT22;6230;52.390;10.256;2023-04-24T13:56:33;15.00;58.80
12329;DHT22;6230;52.390;10.256;2023-04-24T13:58:58;14.90;58.90
12329;DHT22;6230;52.390;10.256;2023-04-24T14:01:24;14.80;58.90
12329;DHT22;6230;52.390;10.256;2023-04-24T14:03:54;14.80;58.90
12329;DHT22;6230;52.390;10.256;2023-04-24T14:06:20;14.70;59.00
12329;DHT22;6230;52.390;10.256;2023-04-24T14:08:47;14.70;59.00
12329;DHT22;6230;52.390;10.256;2023-04-24T14:11:13;14.60;59.00
12329;DHT22;6230;52.390;10.256;2023-04-24T14:13:40;14.60;59.00
12329;DHT22;6230;52.390;10.256;2023-04-24T14:16:06;14.60;59.00
12329;DHT22;6230;52.390;10.256;2023-04-24T14:18:32;14.70;58.90
12329;DHT22;6230;52.390;10.256;2023-04-24T14:20:57;14.60;58.80
12329;DHT22;6230;52.390;10.256;2023-04-24T14:23:23;14.60;58.70
12329;DHT22;6230;52.390;10.256;2023-04-24T14:25:49;14.50;58.60
12329;DHT22;6230;52.390;10.256;2023-04-24T14:28:18;14.50;58.60
12329;DHT22;6230;52.390;10.256;2023-04-24T14:30:44;14.50;58.70
12329;DHT22;6230;52.390;10.256;2023-04-24T14:33:10;14.40;58.60
12329;DHT22;6230;52.390;10.256;2023-04-24T14:35:36;14.30;58.50
12329;DHT22;6230;52.390;10.256;2023-04-24T14:38:01;14.10;58.50
12329;DHT22;6230;52.390;10.256;2023-04-24T14:40:27;14.00;58.50
12329;DHT22;6230;52.390;10.256;2023-04-24T14:42:53;13.90;58.60
12329;DHT22;6230;52.390;10.256;2023-04-24T14:45:18;13.90;58.60
12329;DHT22;6230;52.390;10.256;2023-04-24T14:47:45;13.80;58.80
12329;DHT22;6230;52.390;10.256;2023-04-24T14:50:10;13.70;58.90
12329;DHT22;6230;52.390;10.256;2023-04-24T14:52:37;13.70;59.20
12329;DHT22;6230;52.390;10.256;2023-04-24T14:55:03;13.70;59.30
12329;DHT22;6230;52.390;10.256;2023-04-24T14:57:29;13.70;59.50
12329;DHT22;6230;52.390;10.256;2023-04-24T14:59:55;13.70;59.80
12329;DHT22;6230;52.390;10.256;2023-04-24T15:02:20;13.60;59.90
12329;DHT22;6230;52.390;10.256;2023-04-24T15:04:46;13.60;60.90
12329;DHT22;6230;52.390;10.256;2023-04-24T15:07:11;13.60;60.30
12329;DHT22;6230;52.390;10.256;2023-04-24T15:09:37;13.60;60.60
12329;DHT22;6230;52.390;10.256;2023-04-24T15:12:03;13.50;60.80
12329;DHT22;6230;52.390;10.256;2023-04-24T15:14:28;13.50;61.00
12329;DHT22;6230;52.390;10.256;2023-04-24T15:16:54;13.50;61.60
12329;DHT22;6230;52.390;10.256;2023-04-24T15:19:20;13.40;61.70
12329;DHT22;6230;52.390;10.256;2023-04-24T15:21:46;13.40;61.80
12329;DHT22;6230;52.390;10.256;2023-04-24T15:24:11;13.40;62.10
12329;DHT22;6230;52.390;10.256;2023-04-24T15:26:37;13.40;62.30
12329;DHT22;6230;52.390;10.256;2023-04-24T15:29:02;13.40;62.40
12329;DHT22;6230;52.390;10.256;2023-04-24T15:31:28;13.40;62.80
12329;DHT22;6230;52.390;10.256;2023-04-24T15:33:53;13.40;62.70
12329;DHT22;6230;52.390;10.256;2023-04-24T15:36:19;13.40;62.70
12329;DHT22;6230;52.390;10.256;2023-04-24T15:38:46;13.40;62.50
12329;DHT22;6230;52.390;10.256;2023-04-24T15:41:12;13.40;62.60
12329;DHT22;6230;52.390;10.256;2023-04-24T15:43:37;13.40;62.70
12329;DHT22;6230;52.390;10.256;2023-04-24T15:46:04;13.40;62.90
12329;DHT22;6230;52.390;10.256;2023-04-24T15:48:31;13.30;62.90